sensor_id;sensor_type;location;lat;lon;timestamp;P1;durP1;ratioP1;P2;durP2;ratioP2
70313;SDS011;57725;47.526;18.986;2022-12-18T00:01:29;40.05;;;20.67;;
70313;SDS011;57725;47.526;18.986;2022-12-18T00:03:56;41.25;;;19.67;;
70313;SDS011;57725;47.526;18.986;2022-12-18T00:06:25;39.10;;;19.48;;
70313;SDS011;57725;47.526;18.986;2022-12-18T00:08:52;40.58;;;20.30;;
70313;SDS011;57725;47.526;18.986;2022-12-18T00:11:22;40.15;;;20.90;;
70313;SDS011;57725;47.526;18.986;2022-12-18T00:13:49;38.60;;;19.23;;
70313;SDS011;57725;47.526;18.986;2022-12-18T00:16:19;40.65;;;20.80;;
70313;SDS011;57725;47.526;18.986;2022-12-18T00:18:46;41.15;;;21.17;;
70313;SDS011;57725;47.526;18.986;2022-12-18T00:21:12;42.40;;;21.63;;
70313;SDS011;57725;47.526;18.986;2022-12-18T00:23:40;38.40;;;19.90;;
70313;SDS011;57725;47.526;18.986;2022-12-18T00:26:09;38.95;;;21.08;;
70313;SDS011;57725;47.526;18.986;2022-12-18T00:28:40;40.35;;;21.38;;
70313;SDS011;57725;47.526;18.986;2022-12-18T00:31:06;36.78;;;19.30;;
70313;SDS011;57725;47.526;18.986;2022-12-18T00:33:33;41.50;;;21.73;;
70313;SDS011;57725;47.526;18.986;2022-12-18T00:36:03;37.83;;;19.52;;
70313;SDS011;57725;47.526;18.986;2022-12-18T00:38:30;43.00;;;21.10;;
70313;SDS011;57725;47.526;18.986;2022-12-18T00:41:04;39.55;;;20.48;;
70313;SDS011;57725;47.526;18.986;2022-12-18T00:43:30;37.63;;;20.23;;
70313;SDS011;57725;47.526;18.986;2022-12-18T00:45:57;39.47;;;21.08;;
70313;SDS011;57725;47.526;18.986;2022-12-18T00:48:23;39.47;;;20.25;;
70313;SDS011;57725;47.526;18.986;2022-12-18T00:50:48;39.03;;;20.15;;
70313;SDS011;57725;47.526;18.986;2022-12-18T00:53:14;39.05;;;19.92;;
70313;SDS011;57725;47.526;18.986;2022-12-18T00:55:40;39.42;;;20.17;;
70313;SDS011;57725;47.526;18.986;2022-12-18T00:58:07;36.95;;;19.92;;
70313;SDS011;57725;47.526;18.986;2022-12-18T01:00:33;40.60;;;20.40;;
70313;SDS011;57725;47.526;18.986;2022-12-18T01:02:59;38.25;;;20.88;;
70313;SDS011;57725;47.526;18.986;2022-12-18T01:05:24;40.30;;;20.08;;
70313;SDS011;57725;47.526;18.986;2022-12-18T01:07:50;41.22;;;20.38;;
70313;SDS011;57725;47.526;18.986;2022-12-18T01:10:16;40.17;;;19.15;;
70313;SDS011;57725;47.526;18.986;2022-12-18T01:12:44;41.63;;;20.42;;
70313;SDS011;57725;47.526;18.986;2022-12-18T01:15:10;39.38;;;21.05;;
70313;SDS011;57725;47.526;18.986;2022-12-18T01:17:37;40.72;;;20.45;;
70313;SDS011;57725;47.526;18.986;2022-12-18T01:20:06;43.05;;;20.58;;
70313;SDS011;57725;47.526;18.986;2022-12-18T01:22:32;41.55;;;21.00;;
70313;SDS011;57725;47.526;18.986;2022-12-18T01:24:57;40.58;;;19.92;;
70313;SDS011;57725;47.526;18.986;2022-12-18T01:27:22;37.65;;;19.85;;
70313;SDS011;57725;47.526;18.986;2022-12-18T01:29:48;41.63;;;20.52;;
70313;SDS011;57725;47.526;18.986;2022-12-18T01:32:14;39.80;;;20.80;;
70313;SDS011;57725;47.526;18.986;2022-12-18T01:34:39;39.30;;;19.40;;
70313;SDS011;57725;47.526;18.986;2022-12-18T01:37:05;40.47;;;20.73;;
70313;SDS011;57725;47.526;18.986;2022-12-18T01:39:30;44.00;;;20.38;;
70313;SDS011;57725;47.526;18.986;2022-12-18T01:41:59;41.78;;;19.83;;
70313;SDS011;57725;47.526;18.986;2022-12-18T01:49:54;38.25;;;19.30;;
70313;SDS011;57725;47.526;18.986;2022-12-18T01:52:21;37.67;;;19.15;;
70313;SDS011;57725;47.526;18.986;2022-12-18T01:54:47;40.78;;;20.73;;
70313;SDS011;57725;47.526;18.986;2022-12-18T01:57:15;39.15;;;19.88;;
70313;SDS011;57725;47.526;18.986;2022-12-18T01:59:43;40.30;;;20.85;;
70313;SDS011;57725;47.526;18.986;2022-12-18T02:02:13;38.92;;;19.40;;
70313;SDS011;57725;47.526;18.986;2022-12-18T02:04:40;38.97;;;19.83;;
70313;SDS011;57725;47.526;18.986;2022-12-18T02:09:45;42.65;;;21.27;;
70313;SDS011;57725;47.526;18.986;2022-12-18T02:17:21;40.70;;;20.60;;
70313;SDS011;57725;47.526;18.986;2022-12-18T02:20:04;36.95;;;19.10;;
70313;SDS011;57725;47.526;18.986;2022-12-18T02:30:57;37.85;;;19.13;;
70313;SDS011;57725;47.526;18.986;2022-12-18T02:33:26;41.42;;;18.83;;
70313;SDS011;57725;47.526;18.986;2022-12-18T02:35:54;39.65;;;18.80;;
70313;SDS011;57725;47.526;18.986;2022-12-18T02:38:23;40.10;;;20.63;;
70313;SDS011;57725;47.526;18.986;2022-12-18T02:40:50;40.00;;;20.05;;
70313;SDS011;57725;47.526;18.986;2022-12-18T02:43:20;38.47;;;18.65;;
70313;SDS011;57725;47.526;18.986;2022-12-18T02:45:50;39.97;;;19.27;;
70313;SDS011;57725;47.526;18.986;2022-12-18T02:48:19;36.63;;;18.50;;
70313;SDS011;57725;47.526;18.986;2022-12-18T02:53:53;40.72;;;20.17;;
70313;SDS011;57725;47.526;18.986;2022-12-18T02:56:33;41.00;;;19.77;;
70313;SDS011;57725;47.526;18.986;2022-12-18T02:59:11;37.08;;;19.27;;
70313;SDS011;57725;47.526;18.986;2022-12-18T03:01:43;38.40;;;19.88;;
70313;SDS011;57725;47.526;18.986;2022-12-18T03:07:34;37.95;;;19.75;;
70313;SDS011;57725;47.526;18.986;2022-12-18T03:10:03;39.55;;;19.55;;
70313;SDS011;57725;47.526;18.986;2022-12-18T03:12:32;36.00;;;20.00;;
70313;SDS011;57725;47.526;18.986;2022-12-18T03:15:09;41.40;;;20.05;;
70313;SDS011;57725;47.526;18.986;2022-12-18T03:17:59;35.33;;;18.85;;
70313;SDS011;57725;47.526;18.986;2022-12-18T03:20:29;36.30;;;18.85;;
70313;SDS011;57725;47.526;18.986;2022-12-18T03:23:09;38.83;;;19.70;;
70313;SDS011;57725;47.526;18.986;2022-12-18T03:25:39;40.95;;;21.02;;
70313;SDS011;57725;47.526;18.986;2022-12-18T03:28:13;38.72;;;19.05;;
70313;SDS011;57725;47.526;18.986;2022-12-18T03:30:43;36.80;;;19.20;;
70313;SDS011;57725;47.526;18.986;2022-12-18T03:33:16;38.20;;;19.88;;
70313;SDS011;57725;47.526;18.986;2022-12-18T03:35:45;34.30;;;18.13;;
70313;SDS011;57725;47.526;18.986;2022-12-18T03:38:11;37.10;;;18.60;;
70313;SDS011;57725;47.526;18.986;2022-12-18T03:43:33;38.73;;;20.30;;
70313;SDS011;57725;47.526;18.986;2022-12-18T03:49:23;37.08;;;19.48;;
70313;SDS011;57725;47.526;18.986;2022-12-18T03:52:01;36.95;;;19.13;;
70313;SDS011;57725;47.526;18.986;2022-12-18T03:54:33;42.13;;;22.17;;
70313;SDS011;57725;47.526;18.986;2022-12-18T03:57:02;42.10;;;19.73;;
70313;SDS011;57725;47.526;18.986;2022-12-18T03:59:31;37.65;;;19.60;;
70313;SDS011;57725;47.526;18.986;2022-12-18T04:01:59;38.25;;;19.17;;
70313;SDS011;57725;47.526;18.986;2022-12-18T04:04:26;39.28;;;20.15;;
70313;SDS011;57725;47.526;18.986;2022-12-18T04:06:55;40.92;;;20.90;;
70313;SDS011;57725;47.526;18.986;2022-12-18T04:09:22;41.03;;;20.25;;
70313;SDS011;57725;47.526;18.986;2022-12-18T04:11:50;39.05;;;20.52;;
70313;SDS011;57725;47.526;18.986;2022-12-18T04:14:16;41.15;;;20.70;;
70313;SDS011;57725;47.526;18.986;2022-12-18T04:16:42;40.53;;;20.30;;
70313;SDS011;57725;47.526;18.986;2022-12-18T04:19:07;37.88;;;19.15;;
70313;SDS011;57725;47.526;18.986;2022-12-18T04:21:32;41.10;;;20.88;;
70313;SDS011;57725;47.526;18.986;2022-12-18T04:23:58;38.22;;;19.98;;
70313;SDS011;57725;47.526;18.986;2022-12-18T04:26:25;39.47;;;20.30;;
70313;SDS011;57725;47.526;18.986;2022-12-18T04:28:51;41.00;;;19.25;;
70313;SDS011;57725;47.526;18.986;2022-12-18T04:31:16;40.25;;;19.80;;
70313;SDS011;57725;47.526;18.986;2022-12-18T04:33:41;38.00;;;19.85;;
70313;SDS011;57725;47.526;18.986;2022-12-18T04:36:07;34.42;;;19.75;;
70313;SDS011;57725;47.526;18.986;2022-12-18T04:38:32;37.38;;;19.27;;
70313;SDS011;57725;47.526;18.986;2022-12-18T04:40:58;40.25;;;20.05;;
70313;SDS011;57725;47.526;18.986;2022-12-18T04:43:23;38.65;;;19.40;;
70313;SDS011;57725;47.526;18.986;2022-12-18T04:45:48;40.53;;;20.20;;
70313;SDS011;57725;47.526;18.986;2022-12-18T04:48:14;37.03;;;19.63;;
70313;SDS011;57725;47.526;18.986;2022-12-18T04:50:49;38.22;;;19.17;;
70313;SDS011;57725;47.526;18.986;2022-12-18T04:53:15;36.08;;;19.08;;
70313;SDS011;57725;47.526;18.986;2022-12-18T04:55:40;40.38;;;19.75;;
70313;SDS011;57725;47.526;18.986;2022-12-18T04:58:05;37.42;;;19.00;;
70313;SDS011;57725;47.526;18.986;2022-12-18T05:00:31;34.17;;;18.42;;
70313;SDS011;57725;47.526;18.986;2022-12-18T05:03:09;37.13;;;18.98;;
70313;SDS011;57725;47.526;18.986;2022-12-18T05:05:35;37.20;;;19.02;;
70313;SDS011;57725;47.526;18.986;2022-12-18T05:08:00;37.42;;;17.90;;
70313;SDS011;57725;47.526;18.986;2022-12-18T05:10:26;38.80;;;19.70;;
70313;SDS011;57725;47.526;18.986;2022-12-18T05:12:54;37.72;;;18.95;;
70313;SDS011;57725;47.526;18.986;2022-12-18T05:15:29;38.58;;;18.52;;
70313;SDS011;57725;47.526;18.986;2022-12-18T05:17:56;36.50;;;19.17;;
70313;SDS011;57725;47.526;18.986;2022-12-18T05:20:22;38.75;;;19.15;;
70313;SDS011;57725;47.526;18.986;2022-12-18T05:22:48;38.78;;;19.67;;
70313;SDS011;57725;47.526;18.986;2022-12-18T05:25:14;35.20;;;18.25;;
70313;SDS011;57725;47.526;18.986;2022-12-18T05:27:40;33.63;;;18.58;;
70313;SDS011;57725;47.526;18.986;2022-12-18T05:30:05;35.90;;;18.58;;
70313;SDS011;57725;47.526;18.986;2022-12-18T05:32:31;34.05;;;18.75;;
70313;SDS011;57725;47.526;18.986;2022-12-18T05:34:56;36.20;;;19.05;;
70313;SDS011;57725;47.526;18.986;2022-12-18T05:37:22;37.72;;;19.55;;
70313;SDS011;57725;47.526;18.986;2022-12-18T05:39:49;37.55;;;19.02;;
70313;SDS011;57725;47.526;18.986;2022-12-18T05:42:15;33.95;;;17.98;;
70313;SDS011;57725;47.526;18.986;2022-12-18T05:44:43;36.13;;;18.10;;
70313;SDS011;57725;47.526;18.986;2022-12-18T05:47:11;36.03;;;18.40;;
70313;SDS011;57725;47.526;18.986;2022-12-18T05:49:36;33.08;;;16.40;;
70313;SDS011;57725;47.526;18.986;2022-12-18T05:52:02;37.58;;;18.70;;
70313;SDS011;57725;47.526;18.986;2022-12-18T05:54:27;34.25;;;17.88;;
70313;SDS011;57725;47.526;18.986;2022-12-18T05:56:53;34.25;;;18.92;;
70313;SDS011;57725;47.526;18.986;2022-12-18T05:59:18;35.42;;;17.63;;
70313;SDS011;57725;47.526;18.986;2022-12-18T06:01:44;36.00;;;19.13;;
70313;SDS011;57725;47.526;18.986;2022-12-18T06:04:09;35.22;;;16.52;;
70313;SDS011;57725;47.526;18.986;2022-12-18T06:06:35;33.40;;;16.60;;
70313;SDS011;57725;47.526;18.986;2022-12-18T06:09:00;34.60;;;16.45;;
70313;SDS011;57725;47.526;18.986;2022-12-18T06:11:26;34.05;;;17.58;;
70313;SDS011;57725;47.526;18.986;2022-12-18T06:13:52;33.97;;;18.08;;
70313;SDS011;57725;47.526;18.986;2022-12-18T06:16:19;34.80;;;17.92;;
70313;SDS011;57725;47.526;18.986;2022-12-18T06:18:44;35.30;;;18.38;;
70313;SDS011;57725;47.526;18.986;2022-12-18T06:21:09;36.83;;;17.80;;
70313;SDS011;57725;47.526;18.986;2022-12-18T06:23:35;31.20;;;15.55;;
70313;SDS011;57725;47.526;18.986;2022-12-18T06:26:07;29.08;;;15.02;;
70313;SDS011;57725;47.526;18.986;2022-12-18T06:28:34;33.97;;;17.25;;
70313;SDS011;57725;47.526;18.986;2022-12-18T06:30:59;30.65;;;15.93;;
70313;SDS011;57725;47.526;18.986;2022-12-18T06:33:27;33.70;;;16.30;;
70313;SDS011;57725;47.526;18.986;2022-12-18T06:35:53;33.20;;;16.85;;
70313;SDS011;57725;47.526;18.986;2022-12-18T06:38:19;33.85;;;17.75;;
70313;SDS011;57725;47.526;18.986;2022-12-18T06:40:45;31.05;;;17.48;;
70313;SDS011;57725;47.526;18.986;2022-12-18T06:43:10;35.70;;;17.75;;
70313;SDS011;57725;47.526;18.986;2022-12-18T06:45:35;33.40;;;15.88;;
70313;SDS011;57725;47.526;18.986;2022-12-18T06:48:01;34.75;;;16.38;;
70313;SDS011;57725;47.526;18.986;2022-12-18T06:50:26;33.97;;;17.00;;
70313;SDS011;57725;47.526;18.986;2022-12-18T06:52:52;31.63;;;16.55;;
70313;SDS011;57725;47.526;18.986;2022-12-18T06:55:19;32.50;;;16.70;;
70313;SDS011;57725;47.526;18.986;2022-12-18T06:57:47;30.08;;;14.70;;
70313;SDS011;57725;47.526;18.986;2022-12-18T07:00:13;31.50;;;15.80;;
70313;SDS011;57725;47.526;18.986;2022-12-18T07:02:38;30.38;;;16.20;;
70313;SDS011;57725;47.526;18.986;2022-12-18T07:05:06;31.70;;;16.45;;
70313;SDS011;57725;47.526;18.986;2022-12-18T07:07:33;30.42;;;15.35;;
70313;SDS011;57725;47.526;18.986;2022-12-18T07:09:59;30.00;;;15.43;;
70313;SDS011;57725;47.526;18.986;2022-12-18T07:12:27;31.77;;;16.35;;
70313;SDS011;57725;47.526;18.986;2022-12-18T07:14:52;31.25;;;16.15;;
70313;SDS011;57725;47.526;18.986;2022-12-18T07:17:20;31.98;;;16.17;;
70313;SDS011;57725;47.526;18.986;2022-12-18T07:19:45;30.88;;;15.35;;
70313;SDS011;57725;47.526;18.986;2022-12-18T07:22:11;29.75;;;16.08;;
70313;SDS011;57725;47.526;18.986;2022-12-18T07:24:36;30.55;;;14.82;;
70313;SDS011;57725;47.526;18.986;2022-12-18T07:27:04;29.92;;;14.32;;
70313;SDS011;57725;47.526;18.986;2022-12-18T07:29:29;31.48;;;15.68;;
70313;SDS011;57725;47.526;18.986;2022-12-18T07:31:57;30.40;;;14.15;;
70313;SDS011;57725;47.526;18.986;2022-12-18T07:34:22;29.15;;;15.68;;
70313;SDS011;57725;47.526;18.986;2022-12-18T07:36:47;28.35;;;15.07;;
70313;SDS011;57725;47.526;18.986;2022-12-18T07:39:13;29.15;;;14.65;;
70313;SDS011;57725;47.526;18.986;2022-12-18T07:41:38;28.70;;;14.38;;
70313;SDS011;57725;47.526;18.986;2022-12-18T07:44:10;26.38;;;13.63;;
70313;SDS011;57725;47.526;18.986;2022-12-18T07:46:41;31.50;;;15.32;;
70313;SDS011;57725;47.526;18.986;2022-12-18T07:49:06;26.67;;;13.20;;
70313;SDS011;57725;47.526;18.986;2022-12-18T07:51:32;27.00;;;14.55;;
70313;SDS011;57725;47.526;18.986;2022-12-18T07:53:57;30.60;;;15.43;;
70313;SDS011;57725;47.526;18.986;2022-12-18T07:56:22;28.73;;;13.95;;
70313;SDS011;57725;47.526;18.986;2022-12-18T07:58:48;26.15;;;14.15;;
70313;SDS011;57725;47.526;18.986;2022-12-18T08:01:13;27.95;;;14.63;;
70313;SDS011;57725;47.526;18.986;2022-12-18T08:03:39;27.35;;;13.73;;
70313;SDS011;57725;47.526;18.986;2022-12-18T08:06:11;27.88;;;13.38;;
70313;SDS011;57725;47.526;18.986;2022-12-18T08:08:37;25.25;;;13.50;;
70313;SDS011;57725;47.526;18.986;2022-12-18T08:11:02;30.85;;;15.48;;
70313;SDS011;57725;47.526;18.986;2022-12-18T08:13:28;25.60;;;13.35;;
70313;SDS011;57725;47.526;18.986;2022-12-18T08:15:57;26.58;;;13.88;;
70313;SDS011;57725;47.526;18.986;2022-12-18T08:18:31;27.90;;;14.65;;
70313;SDS011;57725;47.526;18.986;2022-12-18T08:20:57;24.98;;;13.90;;
70313;SDS011;57725;47.526;18.986;2022-12-18T08:23:22;26.15;;;13.60;;
70313;SDS011;57725;47.526;18.986;2022-12-18T08:25:48;28.70;;;15.05;;
70313;SDS011;57725;47.526;18.986;2022-12-18T08:28:13;26.80;;;13.88;;
70313;SDS011;57725;47.526;18.986;2022-12-18T08:30:39;25.25;;;12.93;;
70313;SDS011;57725;47.526;18.986;2022-12-18T08:33:04;26.75;;;13.70;;
70313;SDS011;57725;47.526;18.986;2022-12-18T08:35:30;27.40;;;14.10;;
70313;SDS011;57725;47.526;18.986;2022-12-18T08:38:00;25.15;;;13.75;;
70313;SDS011;57725;47.526;18.986;2022-12-18T08:40:25;27.40;;;13.95;;
70313;SDS011;57725;47.526;18.986;2022-12-18T08:42:50;26.33;;;13.45;;
70313;SDS011;57725;47.526;18.986;2022-12-18T08:45:34;27.90;;;13.45;;
70313;SDS011;57725;47.526;18.986;2022-12-18T08:48:00;24.98;;;12.93;;
70313;SDS011;57725;47.526;18.986;2022-12-18T08:50:25;24.77;;;12.68;;
70313;SDS011;57725;47.526;18.986;2022-12-18T08:52:50;23.27;;;12.77;;
70313;SDS011;57725;47.526;18.986;2022-12-18T08:55:16;25.35;;;13.38;;
70313;SDS011;57725;47.526;18.986;2022-12-18T08:57:41;28.23;;;14.40;;
70313;SDS011;57725;47.526;18.986;2022-12-18T09:00:07;26.15;;;13.38;;
70313;SDS011;57725;47.526;18.986;2022-12-18T09:02:34;25.15;;;13.88;;
70313;SDS011;57725;47.526;18.986;2022-12-18T09:05:00;28.90;;;14.45;;
70313;SDS011;57725;47.526;18.986;2022-12-18T09:07:25;27.65;;;14.65;;
70313;SDS011;57725;47.526;18.986;2022-12-18T09:09:50;26.50;;;13.73;;
70313;SDS011;57725;47.526;18.986;2022-12-18T09:12:16;25.25;;;12.52;;
70313;SDS011;57725;47.526;18.986;2022-12-18T09:14:41;25.90;;;13.20;;
70313;SDS011;57725;47.526;18.986;2022-12-18T09:17:07;22.98;;;12.40;;
70313;SDS011;57725;47.526;18.986;2022-12-18T09:19:32;28.10;;;12.82;;
70313;SDS011;57725;47.526;18.986;2022-12-18T09:21:57;24.00;;;12.07;;
70313;SDS011;57725;47.526;18.986;2022-12-18T09:24:23;24.02;;;12.13;;
70313;SDS011;57725;47.526;18.986;2022-12-18T09:26:52;24.42;;;12.85;;
70313;SDS011;57725;47.526;18.986;2022-12-18T09:29:18;26.77;;;13.02;;
70313;SDS011;57725;47.526;18.986;2022-12-18T09:31:44;22.45;;;12.07;;
70313;SDS011;57725;47.526;18.986;2022-12-18T09:34:09;24.50;;;12.68;;
70313;SDS011;57725;47.526;18.986;2022-12-18T09:36:35;25.08;;;13.20;;
70313;SDS011;57725;47.526;18.986;2022-12-18T09:39:00;25.38;;;12.48;;
70313;SDS011;57725;47.526;18.986;2022-12-18T09:47:13;25.58;;;12.35;;
70313;SDS011;57725;47.526;18.986;2022-12-18T09:49:44;26.65;;;13.02;;
70313;SDS011;57725;47.526;18.986;2022-12-18T09:52:14;25.92;;;12.65;;
70313;SDS011;57725;47.526;18.986;2022-12-18T09:54:46;27.13;;;13.38;;
70313;SDS011;57725;47.526;18.986;2022-12-18T09:57:18;26.00;;;12.50;;
70313;SDS011;57725;47.526;18.986;2022-12-18T09:59:47;22.58;;;11.70;;
70313;SDS011;57725;47.526;18.986;2022-12-18T10:02:29;25.30;;;13.27;;
70313;SDS011;57725;47.526;18.986;2022-12-18T10:05:02;23.33;;;12.85;;
70313;SDS011;57725;47.526;18.986;2022-12-18T10:07:40;25.00;;;12.93;;
70313;SDS011;57725;47.526;18.986;2022-12-18T10:15:40;26.02;;;12.93;;
70313;SDS011;57725;47.526;18.986;2022-12-18T10:18:21;26.58;;;12.63;;
70313;SDS011;57725;47.526;18.986;2022-12-18T10:21:05;26.83;;;12.90;;
70313;SDS011;57725;47.526;18.986;2022-12-18T10:26:47;25.17;;;13.13;;
70313;SDS011;57725;47.526;18.986;2022-12-18T10:29:16;26.05;;;12.30;;
70313;SDS011;57725;47.526;18.986;2022-12-18T10:31:44;26.70;;;13.48;;
70313;SDS011;57725;47.526;18.986;2022-12-18T10:34:13;22.23;;;12.70;;
70313;SDS011;57725;47.526;18.986;2022-12-18T10:36:39;26.45;;;12.70;;
70313;SDS011;57725;47.526;18.986;2022-12-18T10:39:21;27.15;;;13.55;;
70313;SDS011;57725;47.526;18.986;2022-12-18T10:42:11;25.83;;;13.68;;
70313;SDS011;57725;47.526;18.986;2022-12-18T10:44:41;27.35;;;13.55;;
70313;SDS011;57725;47.526;18.986;2022-12-18T10:47:11;26.02;;;13.77;;
70313;SDS011;57725;47.526;18.986;2022-12-18T10:49:41;26.50;;;14.50;;
70313;SDS011;57725;47.526;18.986;2022-12-18T10:54:48;25.08;;;13.40;;
70313;SDS011;57725;47.526;18.986;2022-12-18T10:59:59;25.08;;;12.73;;
70313;SDS011;57725;47.526;18.986;2022-12-18T11:02:38;24.80;;;13.25;;
70313;SDS011;57725;47.526;18.986;2022-12-18T11:05:22;26.95;;;13.45;;
70313;SDS011;57725;47.526;18.986;2022-12-18T11:07:50;26.13;;;13.65;;
70313;SDS011;57725;47.526;18.986;2022-12-18T11:10:19;26.70;;;13.75;;
70313;SDS011;57725;47.526;18.986;2022-12-18T11:12:49;28.60;;;13.75;;
70313;SDS011;57725;47.526;18.986;2022-12-18T11:15:19;30.23;;;14.55;;
70313;SDS011;57725;47.526;18.986;2022-12-18T11:17:50;31.02;;;14.02;;
70313;SDS011;57725;47.526;18.986;2022-12-18T11:20:30;26.08;;;12.63;;
70313;SDS011;57725;47.526;18.986;2022-12-18T11:23:01;26.35;;;13.95;;
70313;SDS011;57725;47.526;18.986;2022-12-18T11:25:29;24.70;;;13.48;;
70313;SDS011;57725;47.526;18.986;2022-12-18T11:30:29;25.10;;;12.60;;
70313;SDS011;57725;47.526;18.986;2022-12-18T11:35:51;24.33;;;12.45;;
70313;SDS011;57725;47.526;18.986;2022-12-18T11:38:30;26.58;;;13.85;;
70313;SDS011;57725;47.526;18.986;2022-12-18T11:44:09;26.35;;;14.50;;
70313;SDS011;57725;47.526;18.986;2022-12-18T11:46:41;26.02;;;13.73;;
70313;SDS011;57725;47.526;18.986;2022-12-18T11:54:35;25.80;;;12.65;;
70313;SDS011;57725;47.526;18.986;2022-12-18T12:02:23;25.33;;;12.93;;
70313;SDS011;57725;47.526;18.986;2022-12-18T12:07:38;30.58;;;14.73;;
70313;SDS011;57725;47.526;18.986;2022-12-18T12:13:16;28.92;;;13.80;;
70313;SDS011;57725;47.526;18.986;2022-12-18T12:18:54;26.42;;;14.02;;
70313;SDS011;57725;47.526;18.986;2022-12-18T12:21:40;24.98;;;13.07;;
70313;SDS011;57725;47.526;18.986;2022-12-18T12:40:18;28.17;;;14.35;;
70313;SDS011;57725;47.526;18.986;2022-12-18T12:42:46;26.42;;;14.43;;
70313;SDS011;57725;47.526;18.986;2022-12-18T12:45:48;28.88;;;14.43;;
70313;SDS011;57725;47.526;18.986;2022-12-18T12:51:26;26.27;;;13.83;;
70313;SDS011;57725;47.526;18.986;2022-12-18T12:54:00;29.65;;;15.65;;
70313;SDS011;57725;47.526;18.986;2022-12-18T12:56:39;28.92;;;15.55;;
70313;SDS011;57725;47.526;18.986;2022-12-18T12:59:13;26.25;;;14.75;;
70313;SDS011;57725;47.526;18.986;2022-12-18T13:02:00;31.38;;;15.80;;
70313;SDS011;57725;47.526;18.986;2022-12-18T13:04:51;26.88;;;14.43;;
70313;SDS011;57725;47.526;18.986;2022-12-18T13:07:30;28.05;;;14.95;;
70313;SDS011;57725;47.526;18.986;2022-12-18T13:20:33;30.42;;;14.95;;
70313;SDS011;57725;47.526;18.986;2022-12-18T13:22:59;32.67;;;16.02;;
70313;SDS011;57725;47.526;18.986;2022-12-18T13:25:29;39.67;;;17.40;;
70313;SDS011;57725;47.526;18.986;2022-12-18T13:36:23;35.35;;;17.27;;
70313;SDS011;57725;47.526;18.986;2022-12-18T13:38:40;32.28;;;16.38;;
70313;SDS011;57725;47.526;18.986;2022-12-18T13:43:33;34.63;;;17.17;;
70313;SDS011;57725;47.526;18.986;2022-12-18T13:46:04;33.83;;;17.38;;
70313;SDS011;57725;47.526;18.986;2022-12-18T13:51:29;35.15;;;17.08;;
70313;SDS011;57725;47.526;18.986;2022-12-18T13:53:59;34.35;;;17.45;;
70313;SDS011;57725;47.526;18.986;2022-12-18T13:56:27;31.30;;;16.42;;
70313;SDS011;57725;47.526;18.986;2022-12-18T14:01:41;36.00;;;17.05;;
70313;SDS011;57725;47.526;18.986;2022-12-18T14:04:33;34.10;;;15.10;;
70313;SDS011;57725;47.526;18.986;2022-12-18T14:07:04;32.92;;;15.75;;
70313;SDS011;57725;47.526;18.986;2022-12-18T14:09:31;31.27;;;16.40;;
70313;SDS011;57725;47.526;18.986;2022-12-18T14:12:00;33.53;;;16.10;;
70313;SDS011;57725;47.526;18.986;2022-12-18T14:14:48;30.27;;;16.15;;
70313;SDS011;57725;47.526;18.986;2022-12-18T14:17:16;29.42;;;15.30;;
70313;SDS011;57725;47.526;18.986;2022-12-18T14:19:46;31.95;;;15.30;;
70313;SDS011;57725;47.526;18.986;2022-12-18T14:22:21;32.88;;;17.98;;
70313;SDS011;57725;47.526;18.986;2022-12-18T14:27:38;42.03;;;16.20;;
70313;SDS011;57725;47.526;18.986;2022-12-18T14:35:38;30.45;;;16.13;;
70313;SDS011;57725;47.526;18.986;2022-12-18T14:38:09;30.88;;;15.30;;
70313;SDS011;57725;47.526;18.986;2022-12-18T14:40:41;30.73;;;15.20;;
70313;SDS011;57725;47.526;18.986;2022-12-18T14:43:09;28.33;;;16.25;;
70313;SDS011;57725;47.526;18.986;2022-12-18T14:48:05;37.05;;;18.38;;
70313;SDS011;57725;47.526;18.986;2022-12-18T14:50:37;37.88;;;18.30;;
70313;SDS011;57725;47.526;18.986;2022-12-18T14:53:16;33.28;;;17.20;;
70313;SDS011;57725;47.526;18.986;2022-12-18T14:55:46;37.70;;;18.17;;
70313;SDS011;57725;47.526;18.986;2022-12-18T14:58:14;38.88;;;18.55;;
70313;SDS011;57725;47.526;18.986;2022-12-18T15:00:42;46.83;;;19.20;;
70313;SDS011;57725;47.526;18.986;2022-12-18T15:03:20;39.72;;;18.88;;
70313;SDS011;57725;47.526;18.986;2022-12-18T15:05:46;37.45;;;17.23;;
70313;SDS011;57725;47.526;18.986;2022-12-18T15:08:29;37.90;;;19.10;;
70313;SDS011;57725;47.526;18.986;2022-12-18T15:11:01;40.20;;;18.77;;
70313;SDS011;57725;47.526;18.986;2022-12-18T15:13:27;34.22;;;18.65;;
70313;SDS011;57725;47.526;18.986;2022-12-18T15:15:54;32.45;;;16.75;;
70313;SDS011;57725;47.526;18.986;2022-12-18T15:18:32;40.17;;;18.13;;
70313;SDS011;57725;47.526;18.986;2022-12-18T15:21:09;38.90;;;17.50;;
70313;SDS011;57725;47.526;18.986;2022-12-18T15:23:50;35.63;;;17.70;;
70313;SDS011;57725;47.526;18.986;2022-12-18T15:26:17;35.25;;;18.48;;
70313;SDS011;57725;47.526;18.986;2022-12-18T15:28:53;35.10;;;16.33;;
70313;SDS011;57725;47.526;18.986;2022-12-18T15:31:28;34.83;;;18.23;;
70313;SDS011;57725;47.526;18.986;2022-12-18T15:36:22;37.93;;;17.60;;
70313;SDS011;57725;47.526;18.986;2022-12-18T15:38:52;33.47;;;17.85;;
70313;SDS011;57725;47.526;18.986;2022-12-18T15:41:20;41.05;;;18.13;;
70313;SDS011;57725;47.526;18.986;2022-12-18T15:43:49;39.20;;;18.98;;
70313;SDS011;57725;47.526;18.986;2022-12-18T15:46:20;37.58;;;18.38;;
70313;SDS011;57725;47.526;18.986;2022-12-18T15:48:50;37.00;;;19.10;;
70313;SDS011;57725;47.526;18.986;2022-12-18T15:54:05;34.83;;;17.10;;
70313;SDS011;57725;47.526;18.986;2022-12-18T15:56:36;38.50;;;19.17;;
70313;SDS011;57725;47.526;18.986;2022-12-18T15:59:20;33.92;;;17.30;;
70313;SDS011;57725;47.526;18.986;2022-12-18T16:01:46;35.55;;;18.88;;
70313;SDS011;57725;47.526;18.986;2022-12-18T16:04:15;35.33;;;18.17;;
70313;SDS011;57725;47.526;18.986;2022-12-18T16:06:42;37.88;;;20.00;;
70313;SDS011;57725;47.526;18.986;2022-12-18T16:09:08;36.13;;;19.42;;
70313;SDS011;57725;47.526;18.986;2022-12-18T16:11:34;40.65;;;19.33;;
70313;SDS011;57725;47.526;18.986;2022-12-18T16:16:51;38.40;;;19.08;;
70313;SDS011;57725;47.526;18.986;2022-12-18T16:19:21;41.47;;;20.70;;
70313;SDS011;57725;47.526;18.986;2022-12-18T16:21:46;38.42;;;19.77;;
70313;SDS011;57725;47.526;18.986;2022-12-18T16:24:16;39.75;;;19.33;;
70313;SDS011;57725;47.526;18.986;2022-12-18T16:26:44;39.35;;;19.63;;
70313;SDS011;57725;47.526;18.986;2022-12-18T16:29:12;39.65;;;19.15;;
70313;SDS011;57725;47.526;18.986;2022-12-18T16:31:37;36.70;;;19.67;;
70313;SDS011;57725;47.526;18.986;2022-12-18T16:34:09;39.05;;;20.02;;
70313;SDS011;57725;47.526;18.986;2022-12-18T16:36:36;38.67;;;20.63;;
70313;SDS011;57725;47.526;18.986;2022-12-18T16:39:01;36.33;;;19.17;;
70313;SDS011;57725;47.526;18.986;2022-12-18T16:41:27;36.55;;;18.70;;
70313;SDS011;57725;47.526;18.986;2022-12-18T16:43:59;34.78;;;18.85;;
70313;SDS011;57725;47.526;18.986;2022-12-18T16:46:25;38.67;;;19.55;;